Time;durP1;ratioP1;P1;durP2;ratioP2;P2;SDS_P1;SDS_P2;PMS_P1;PMS_P2;Temp;Humidity;BMP_temperature;BMP_pressure;BME280_temperature;BME280_humidity;BME280_pressure;Samples;Min_cycle;Max_cycle;Signal;HPM_P1;HPM_P2
2023/07/31 00:00:12;;;;;;;3.33;1.40;;;18.60;99.90;;;;;;5050412;28;20670;-60
2023/07/31 00:02:39;;;;;;;4.35;1.40;;;18.60;99.90;;;;;;5050908;28;20222;-60
2023/07/31 00:05:06;;;;;;;3.95;1.60;;;18.50;99.90;;;;;;5050948;28;20263;-59
2023/07/31 00:07:34;;;;;;;3.05;1.73;;;18.40;99.90;;;;;;5050387;28;20214;-59
2023/07/31 00:10:02;;;;;;;4.20;1.65;;;18.40;99.90;;;;;;5050621;28;20623;-62
2023/07/31 00:12:29;;;;;;;5.55;1.60;;;18.30;99.90;;;;;;5050631;28;20316;-58
2023/07/31 00:14:55;;;;;;;5.68;1.40;;;18.20;99.90;;;;;;5054197;28;20205;-60
2023/07/31 00:17:22;;;;;;;3.55;1.50;;;18.10;99.90;;;;;;5053925;28;20580;-59
2023/07/31 00:19:50;;;;;;;6.35;1.50;;;18.00;99.90;;;;;;5054063;28;20640;-59
2023/07/31 00:22:17;;;;;;;3.17;1.30;;;17.90;99.90;;;;;;5054106;28;20295;-60
2023/07/31 00:24:45;;;;;;;3.08;1.50;;;17.80;99.90;;;;;;5054275;28;20236;-60
2023/07/31 00:27:12;;;;;;;4.13;1.45;;;17.80;99.90;;;;;;5053549;28;20673;-60
2023/07/31 00:29:38;;;;;;;2.55;1.30;;;17.70;99.90;;;;;;5054355;28;20217;-60
2023/07/31 00:32:06;;;;;;;5.22;1.73;;;17.70;99.90;;;;;;5054255;28;20713;-60
2023/07/31 00:34:33;;;;;;;4.93;1.50;;;17.60;99.90;;;;;;5054018;28;20208;-60
2023/07/31 00:37:00;;;;;;;4.85;1.50;;;17.60;99.90;;;;;;5053564;28;20564;-61
2023/07/31 00:39:27;;;;;;;3.95;1.55;;;17.50;99.90;;;;;;5053996;28;20211;-60
2023/07/31 00:41:55;;;;;;;4.95;1.75;;;17.60;99.90;;;;;;5053783;28;20299;-60
2023/07/31 00:44:21;;;;;;;3.33;1.42;;;17.60;99.90;;;;;;5053789;28;20705;-60
2023/07/31 00:46:48;;;;;;;4.30;1.50;;;17.50;99.90;;;;;;5053728;28;20210;-60
2023/07/31 00:49:16;;;;;;;3.05;1.38;;;17.50;99.90;;;;;;5054102;28;20213;-61
2023/07/31 00:51:42;;;;;;;3.53;1.38;;;17.50;99.90;;;;;;5053448;28;20283;-61
2023/07/31 00:54:10;;;;;;;2.90;1.40;;;17.50;99.90;;;;;;5053544;28;20677;-60
2023/07/31 00:56:37;;;;;;;4.03;1.52;;;17.50;99.90;;;;;;5053043;28;20216;-61
2023/07/31 00:59:05;;;;;;;3.88;1.30;;;17.40;99.90;;;;;;5053647;28;20217;-60
2023/07/31 01:01:32;;;;;;;4.90;1.58;;;17.30;99.90;;;;;;5053472;28;20229;-60
2023/07/31 01:03:58;;;;;;;2.10;1.10;;;17.30;99.90;;;;;;5053477;28;20229;-62
2023/07/31 01:06:33;;;;;;;3.00;1.45;;;17.30;99.90;;;;;;5052945;28;20205;-61
2023/07/31 01:09:04;;;;;;;3.38;1.58;;;17.40;99.90;;;;;;5053342;28;20209;-61
2023/07/31 01:11:33;;;;;;;3.58;1.60;;;17.40;99.90;;;;;;5053353;28;20233;-61
2023/07/31 01:14:00;;;;;;;3.05;1.40;;;17.30;99.90;;;;;;5053431;28;20205;-62
2023/07/31 01:16:28;;;;;;;2.55;1.35;;;17.40;99.90;;;;;;5052614;28;20829;-61
2023/07/31 01:18:55;;;;;;;2.03;1.30;;;17.40;99.90;;;;;;5053222;28;20206;-60
2023/07/31 01:21:41;;;;;;;3.42;1.33;;;17.30;99.90;;;;;;5052535;28;20225;-60
2023/07/31 01:24:22;;;;;;;5.70;1.65;;;17.30;99.90;;;;;;5052281;28;20225;-61
2023/07/31 01:26:56;;;;;;;3.15;1.42;;;17.20;99.90;;;;;;5052833;28;20209;-60
2023/07/31 01:29:30;;;;;;;3.97;1.48;;;17.20;99.90;;;;;;5052854;28;20209;-61
2023/07/31 01:31:59;;;;;;;3.25;1.63;;;17.10;99.90;;;;;;5052611;28;20233;-61
2023/07/31 01:34:27;;;;;;;2.50;1.60;;;17.10;99.90;;;;;;5052817;28;20692;-61
2023/07/31 01:36:54;;;;;;;1.65;1.27;;;17.00;99.90;;;;;;5052647;28;20591;-60
2023/07/31 01:39:21;;;;;;;3.53;1.40;;;17.00;99.90;;;;;;5052659;28;20217;-61
2023/07/31 01:41:49;;;;;;;4.25;1.50;;;17.00;99.90;;;;;;5052457;28;20692;-61
2023/07/31 01:44:16;;;;;;;2.38;1.45;;;16.90;99.90;;;;;;5052370;28;20232;-61
2023/07/31 01:46:42;;;;;;;3.72;1.50;;;17.00;99.90;;;;;;5052463;28;20220;-60
2023/07/31 01:49:09;;;;;;;4.13;1.25;;;17.00;99.90;;;;;;5052414;28;20712;-60
2023/07/31 01:51:36;;;;;;;2.72;1.30;;;17.00;99.90;;;;;;5052411;28;20279;-61
2023/07/31 01:54:03;;;;;;;2.67;1.40;;;17.10;99.90;;;;;;5052395;28;20259;-60
2023/07/31 01:56:29;;;;;;;2.53;1.30;;;17.00;99.90;;;;;;5052138;28;20209;-61
2023/07/31 01:58:57;;;;;;;5.40;1.50;;;17.00;99.90;;;;;;5052211;28;20232;-61
2023/07/31 02:01:24;;;;;;;5.05;1.40;;;17.10;99.90;;;;;;5052060;28;20712;-61
2023/07/31 02:03:51;;;;;;;3.85;1.63;;;17.10;99.90;;;;;;5052245;28;20252;-59
2023/07/31 02:06:17;;;;;;;2.53;1.20;;;17.10;99.90;;;;;;5051915;28;20209;-61
2023/07/31 02:08:44;;;;;;;2.13;1.40;;;17.10;99.90;;;;;;5051897;28;20708;-61
2023/07/31 02:11:11;;;;;;;3.88;1.40;;;17.10;99.90;;;;;;5051978;28;20660;-61
2023/07/31 02:13:37;;;;;;;4.35;1.40;;;17.10;99.90;;;;;;5051950;28;20209;-61
2023/07/31 02:16:06;;;;;;;4.63;1.40;;;17.10;99.90;;;;;;5051838;28;20221;-61
2023/07/31 02:18:32;;;;;;;6.72;1.40;;;17.10;99.90;;;;;;5051905;28;20591;-63
2023/07/31 02:20:59;;;;;;;4.93;1.63;;;17.10;99.90;;;;;;5052019;28;20236;-61
2023/07/31 02:23:26;;;;;;;3.63;1.35;;;17.00;99.90;;;;;;5051807;28;20233;-60
2023/07/31 02:25:52;;;;;;;6.50;1.48;;;17.00;99.90;;;;;;5052172;28;20220;-62
2023/07/31 02:28:19;;;;;;;2.78;1.25;;;17.00;99.90;;;;;;5051739;28;20201;-61
2023/07/31 02:30:46;;;;;;;4.00;1.52;;;16.90;99.90;;;;;;5051718;28;20241;-61
2023/07/31 02:33:15;;;;;;;4.43;1.65;;;16.90;99.90;;;;;;5051827;28;20209;-60
2023/07/31 02:35:42;;;;;;;2.97;1.38;;;16.80;99.90;;;;;;5051237;28;20217;-60
2023/07/31 02:38:09;;;;;;;4.82;1.30;;;16.80;99.90;;;;;;5051730;28;20268;-61
2023/07/31 02:40:35;;;;;;;4.25;1.75;;;16.80;99.90;;;;;;5051472;28;20225;-60
2023/07/31 02:43:02;;;;;;;5.93;1.90;;;16.90;99.90;;;;;;5051745;28;20209;-61
2023/07/31 02:45:29;;;;;;;2.33;1.38;;;16.90;99.90;;;;;;5051588;28;20226;-60
2023/07/31 02:47:55;;;;;;;6.78;2.00;;;16.90;99.90;;;;;;5051381;28;20533;-60
2023/07/31 02:50:23;;;;;;;6.20;1.73;;;17.00;99.90;;;;;;5051171;28;20231;-61
2023/07/31 02:52:50;;;;;;;3.55;1.60;;;17.00;99.90;;;;;;5051452;28;20292;-61
2023/07/31 02:55:17;;;;;;;3.00;1.60;;;17.10;99.90;;;;;;5051412;28;20202;-61
2023/07/31 02:57:44;;;;;;;3.60;1.27;;;17.10;99.90;;;;;;5051271;28;20235;-61
2023/07/31 03:00:11;;;;;;;2.33;1.60;;;17.10;99.90;;;;;;5051237;28;20217;-60
2023/07/31 03:02:37;;;;;;;4.68;1.95;;;17.10;99.90;;;;;;5051375;28;20229;-60
2023/07/31 03:05:04;;;;;;;2.67;1.80;;;17.10;99.90;;;;;;5051139;28;20228;-62
2023/07/31 03:07:32;;;;;;;4.32;1.80;;;17.10;99.90;;;;;;5051009;28;20209;-61
2023/07/31 03:09:59;;;;;;;5.95;1.50;;;17.10;99.90;;;;;;5051075;28;20210;-60
2023/07/31 03:12:26;;;;;;;7.32;1.75;;;17.10;99.90;;;;;;5051099;28;20233;-60
2023/07/31 03:14:52;;;;;;;11.02;7.32;;;17.00;99.90;;;;;;5051122;28;20202;-61
2023/07/31 03:17:19;;;;;;;3.88;2.00;;;17.00;99.90;;;;;;5051093;28;20277;-60
2023/07/31 03:19:46;;;;;;;3.85;1.67;;;17.00;99.90;;;;;;5051425;28;20677;-60
2023/07/31 03:22:13;;;;;;;3.13;1.48;;;16.90;99.90;;;;;;5050970;28;20232;-61
2023/07/31 03:24:41;;;;;;;2.78;1.60;;;16.90;99.90;;;;;;5051228;28;20229;-60
2023/07/31 03:27:07;;;;;;;3.38;1.88;;;16.90;99.90;;;;;;5050931;28;20260;-59
2023/07/31 03:29:34;;;;;;;4.03;2.08;;;16.90;99.90;;;;;;5051151;28;20209;-60
2023/07/31 03:32:01;;;;;;;4.50;2.35;;;16.90;99.90;;;;;;5050839;28;20230;-60
2023/07/31 03:34:28;;;;;;;5.90;3.28;;;16.90;99.90;;;;;;5051015;28;20202;-60
2023/07/31 03:36:54;;;;;;;4.47;2.08;;;16.80;99.90;;;;;;5050550;28;20676;-61
2023/07/31 03:39:21;;;;;;;5.20;2.22;;;16.90;99.90;;;;;;5050807;28;20642;-60
2023/07/31 03:41:49;;;;;;;4.03;1.55;;;16.80;99.90;;;;;;5050900;28;20229;-60
2023/07/31 03:44:16;;;;;;;4.18;2.40;;;16.80;99.90;;;;;;5050922;28;20253;-60
2023/07/31 03:46:43;;;;;;;5.20;1.90;;;16.80;99.90;;;;;;5050775;28;20209;-62
2023/07/31 03:49:10;;;;;;;3.22;1.63;;;16.70;99.90;;;;;;5053597;28;20209;-60
2023/07/31 03:51:36;;;;;;;2.70;1.65;;;16.80;99.90;;;;;;5054505;28;20421;-60
2023/07/31 03:54:03;;;;;;;5.68;2.47;;;16.80;99.90;;;;;;5054822;28;20208;-61
2023/07/31 03:56:30;;;;;;;2.80;2.08;;;16.80;99.90;;;;;;5054644;28;20213;-60
2023/07/31 03:58:58;;;;;;;6.05;2.15;;;16.90;99.90;;;;;;5054531;28;20675;-59
2023/07/31 04:01:24;;;;;;;3.55;1.80;;;16.90;99.90;;;;;;5054300;28;20234;-60
2023/07/31 04:03:51;;;;;;;2.30;1.52;;;16.90;99.90;;;;;;5054283;28;20212;-60
2023/07/31 04:06:18;;;;;;;2.75;1.63;;;17.00;99.90;;;;;;5054209;28;20215;-59
2023/07/31 04:08:45;;;;;;;3.60;2.08;;;17.00;99.90;;;;;;5054498;28;20263;-62
2023/07/31 04:11:12;;;;;;;7.30;2.60;;;17.00;99.90;;;;;;5054129;28;20265;-61
2023/07/31 04:13:39;;;;;;;6.07;1.83;;;17.10;99.90;;;;;;5054538;28;20206;-61
2023/07/31 04:16:07;;;;;;;5.43;2.00;;;17.10;99.90;;;;;;5054443;28;20225;-60
2023/07/31 04:18:34;;;;;;;4.95;2.25;;;17.20;99.90;;;;;;5054058;28;20202;-60
2023/07/31 04:21:01;;;;;;;2.60;1.23;;;17.30;99.90;;;;;;5054364;28;20233;-59
2023/07/31 04:23:28;;;;;;;4.43;1.60;;;17.30;99.90;;;;;;5054009;28;20292;-60
2023/07/31 04:25:54;;;;;;;2.30;1.40;;;17.40;99.90;;;;;;5053745;28;20337;-60
2023/07/31 04:28:21;;;;;;;5.03;2.10;;;17.50;99.90;;;;;;5054341;28;20221;-60
2023/07/31 04:30:48;;;;;;;4.47;1.95;;;17.60;99.90;;;;;;5053769;28;20248;-60
2023/07/31 04:33:16;;;;;;;4.47;1.60;;;17.60;99.90;;;;;;5053839;28;20612;-60
2023/07/31 04:35:51;;;;;;;4.40;1.55;;;17.60;99.90;;;;;;5053860;28;20208;-61
2023/07/31 04:38:18;;;;;;;4.47;1.40;;;17.60;99.90;;;;;;5054121;28;20236;-61
2023/07/31 04:40:45;;;;;;;4.00;1.60;;;17.60;99.90;;;;;;5054100;28;20232;-60
2023/07/31 04:43:11;;;;;;;3.38;1.60;;;17.70;99.90;;;;;;5055554;28;20210;-60
2023/07/31 04:45:38;;;;;;;4.03;1.75;;;17.90;99.90;;;;;;5056382;28;20218;-60
2023/07/31 04:48:05;;;;;;;2.90;1.60;;;18.00;99.90;;;;;;5055054;28;20213;-62
2023/07/31 04:50:33;;;;;;;3.92;1.60;;;18.20;99.90;;;;;;5053849;28;20308;-59
2023/07/31 04:53:00;;;;;;;3.85;1.40;;;18.30;99.90;;;;;;5053648;28;20245;-60
2023/07/31 04:55:27;;;;;;;2.28;1.50;;;18.50;99.90;;;;;;5053456;28;20225;-61
2023/07/31 04:57:53;;;;;;;3.28;1.80;;;18.80;99.90;;;;;;5053622;28;20212;-61
2023/07/31 05:00:20;;;;;;;2.25;1.60;;;18.90;99.90;;;;;;5053196;28;20249;-60
2023/07/31 05:02:47;;;;;;;3.10;1.73;;;19.00;99.90;;;;;;5053528;28;20209;-60
2023/07/31 05:05:14;;;;;;;4.28;1.77;;;19.10;99.90;;;;;;5053468;28;20316;-59
2023/07/31 05:07:42;;;;;;;4.15;2.00;;;19.20;99.90;;;;;;5053222;28;20232;-61
2023/07/31 05:10:09;;;;;;;3.00;1.58;;;19.40;99.90;;;;;;5053125;28;20674;-59
2023/07/31 05:12:36;;;;;;;2.05;1.60;;;19.60;99.90;;;;;;5053015;28;20701;-59
2023/07/31 05:15:03;;;;;;;7.55;1.65;;;19.60;99.90;;;;;;5053293;28;20301;-61
2023/07/31 05:17:30;;;;;;;2.80;1.60;;;19.80;99.90;;;;;;5052876;28;20743;-60
2023/07/31 05:19:56;;;;;;;5.75;1.20;;;19.90;99.90;;;;;;5053024;28;20205;-59
2023/07/31 05:22:23;;;;;;;2.28;1.33;;;20.00;99.90;;;;;;5053101;28;20226;-60
2023/07/31 05:24:51;;;;;;;2.63;1.35;;;20.10;99.90;;;;;;5052913;28;20228;-60
2023/07/31 05:27:18;;;;;;;4.75;1.63;;;20.30;99.90;;;;;;5052677;28;20209;-60
2023/07/31 05:29:45;;;;;;;3.67;1.58;;;20.30;99.90;;;;;;5053199;28;20438;-60
2023/07/31 05:32:12;;;;;;;5.55;1.48;;;20.40;99.90;;;;;;5052456;28;20729;-60
2023/07/31 05:34:39;;;;;;;2.88;1.40;;;20.50;99.90;;;;;;5052866;28;20201;-60
2023/07/31 05:37:06;;;;;;;3.30;1.60;;;20.60;99.90;;;;;;5052577;28;20623;-62
2023/07/31 05:39:33;;;;;;;1.83;1.30;;;20.70;99.90;;;;;;5052579;28;20210;-61
2023/07/31 05:42:01;;;;;;;2.38;1.40;;;21.10;99.90;;;;;;5052349;28;20586;-61
2023/07/31 05:44:28;;;;;;;4.47;1.60;;;21.20;99.90;;;;;;5052600;28;20226;-61
2023/07/31 05:46:54;;;;;;;3.00;1.50;;;21.50;99.90;;;;;;5052318;28;20586;-61
2023/07/31 05:49:21;;;;;;;3.63;1.30;;;21.80;99.90;;;;;;5052523;28;20236;-60
2023/07/31 05:51:48;;;;;;;4.53;1.67;;;22.40;99.90;;;;;;5052203;28;20229;-60
2023/07/31 05:54:14;;;;;;;4.55;1.50;;;23.10;99.90;;;;;;5052021;28;20672;-60
2023/07/31 05:56:41;;;;;;;2.42;1.42;;;23.70;99.90;;;;;;5051990;28;20209;-60
2023/07/31 05:59:10;;;;;;;4.55;1.58;;;24.40;99.90;;;;;;5052209;28;20229;-60
2023/07/31 06:01:36;;;;;;;3.35;1.35;;;25.30;99.90;;;;;;5051869;28;20225;-60
2023/07/31 06:04:03;;;;;;;5.32;1.50;;;25.30;99.90;;;;;;5051691;28;20647;-59
2023/07/31 06:06:30;;;;;;;7.68;1.30;;;25.00;99.90;;;;;;5051522;28;20229;-60
2023/07/31 06:08:57;;;;;;;5.45;1.60;;;24.80;99.90;;;;;;5051806;28;20210;-60
2023/07/31 06:11:24;;;;;;;4.70;1.40;;;24.40;99.90;;;;;;5051246;28;20232;-60
2023/07/31 06:13:51;;;;;;;3.53;2.00;;;24.20;99.90;;;;;;5051927;28;20209;-60
2023/07/31 06:16:19;;;;;;;2.45;1.30;;;24.30;99.90;;;;;;5051549;28;20224;-59
2023/07/31 06:18:46;;;;;;;2.90;1.50;;;25.00;99.90;;;;;;5051912;28;20206;-60
2023/07/31 06:21:12;;;;;;;4.53;1.50;;;26.50;99.90;;;;;;5051702;28;20232;-62
2023/07/31 06:23:39;;;;;;;3.58;1.63;;;27.70;97.80;;;;;;5051717;28;20305;-59
2023/07/31 06:26:06;;;;;;;2.97;1.65;;;28.40;95.60;;;;;;5051605;28;20222;-60
2023/07/31 06:28:33;;;;;;;3.97;1.30;;;28.60;94.40;;;;;;5051647;28;20561;-60
2023/07/31 06:31:00;;;;;;;3.65;1.40;;;29.10;92.80;;;;;;5052042;28;20709;-60
2023/07/31 06:33:29;;;;;;;3.20;1.88;;;30.00;90.80;;;;;;5051865;28;20316;-59
2023/07/31 06:35:55;;;;;;;4.80;1.50;;;30.70;88.50;;;;;;5052053;28;20645;-59
2023/07/31 06:38:25;;;;;;;3.03;1.20;;;31.70;83.90;;;;;;5051983;28;20407;-58
2023/07/31 06:40:51;;;;;;;3.28;1.50;;;32.60;78.40;;;;;;5051576;28;20233;-59
2023/07/31 06:43:18;;;;;;;4.35;1.52;;;33.30;74.40;;;;;;5051307;28;20201;-58
2023/07/31 06:45:45;;;;;;;2.30;1.50;;;33.90;71.30;;;;;;5051255;28;20232;-59
2023/07/31 06:48:12;;;;;;;5.35;1.80;;;33.80;69.50;;;;;;5051479;28;20378;-59
2023/07/31 06:50:40;;;;;;;3.17;1.35;;;33.90;68.10;;;;;;5051212;28;20225;-60
2023/07/31 06:53:07;;;;;;;3.40;1.55;;;34.70;66.20;;;;;;5051587;28;20202;-59
2023/07/31 06:55:34;;;;;;;2.80;1.50;;;35.60;62.70;;;;;;5051472;28;20257;-59
2023/07/31 06:58:01;;;;;;;3.70;1.60;;;35.10;62.20;;;;;;5051291;28;20206;-59
2023/07/31 07:00:28;;;;;;;5.95;1.88;;;34.30;63.10;;;;;;5051172;28;20216;-59
2023/07/31 07:02:55;;;;;;;3.63;1.50;;;33.10;65.60;;;;;;5051764;28;20213;-59
2023/07/31 07:05:22;;;;;;;3.92;1.60;;;32.50;66.20;;;;;;5051218;28;20225;-60
2023/07/31 07:07:50;;;;;;;7.55;1.92;;;32.00;68.00;;;;;;5051143;28;20205;-59
2023/07/31 07:10:17;;;;;;;2.45;1.55;;;32.00;67.60;;;;;;5051408;28;20262;-59
2023/07/31 07:12:44;;;;;;;5.05;2.08;;;32.70;66.30;;;;;;5051176;28;20201;-56
2023/07/31 07:15:10;;;;;;;3.80;1.65;;;34.20;63.70;;;;;;5051180;28;20197;-54
2023/07/31 07:17:37;;;;;;;4.00;1.77;;;35.10;60.90;;;;;;5050661;28;20205;-54
2023/07/31 07:20:05;;;;;;;2.97;1.70;;;35.40;59.00;;;;;;5051535;28;20292;-53
2023/07/31 07:22:31;;;;;;;6.93;2.15;;;34.70;59.70;;;;;;5052704;28;20241;-53
2023/07/31 07:24:59;;;;;;;3.08;1.83;;;34.30;60.00;;;;;;5055355;28;20221;-53
2023/07/31 07:27:26;;;;;;;4.00;1.75;;;33.70;60.60;;;;;;5055857;28;20209;-53
2023/07/31 07:29:53;;;;;;;4.43;1.80;;;33.60;60.70;;;;;;5056338;28;20243;-54
2023/07/31 07:32:20;;;;;;;5.75;2.00;;;34.00;60.20;;;;;;5056332;28;20237;-52
2023/07/31 07:34:49;;;;;;;4.35;1.60;;;33.80;59.70;;;;;;5056279;28;20220;-54
2023/07/31 07:37:16;;;;;;;6.82;1.90;;;33.20;60.50;;;;;;5055049;28;20202;-52
2023/07/31 07:39:42;;;;;;;5.65;1.98;;;32.60;61.00;;;;;;5055249;28;20267;-54
2023/07/31 07:42:10;;;;;;;6.10;2.10;;;31.70;62.40;;;;;;5054791;28;20307;-53
2023/07/31 07:44:37;;;;;;;3.75;1.70;;;31.00;64.40;;;;;;5054838;28;20213;-53
2023/07/31 07:47:05;;;;;;;3.42;2.08;;;30.20;65.70;;;;;;5054607;28;20225;-53
2023/07/31 07:49:32;;;;;;;4.80;1.90;;;29.50;68.10;;;;;;5055164;28;20209;-53
2023/07/31 07:51:59;;;;;;;7.72;1.92;;;29.10;69.40;;;;;;5054933;28;20228;-53
2023/07/31 07:54:26;;;;;;;5.18;1.90;;;28.90;70.40;;;;;;5055119;28;20205;-53
2023/07/31 07:56:52;;;;;;;4.88;2.10;;;28.80;70.70;;;;;;5054256;28;20216;-55
2023/07/31 07:59:21;;;;;;;4.93;1.98;;;28.70;71.50;;;;;;5054484;28;20661;-54
2023/07/31 08:01:47;;;;;;;5.25;1.75;;;28.80;71.50;;;;;;5055118;28;20229;-59
2023/07/31 08:04:14;;;;;;;3.92;1.67;;;29.10;71.20;;;;;;5054920;28;20217;-53
2023/07/31 08:06:41;;;;;;;5.10;1.95;;;29.60;70.10;;;;;;5054654;28;20229;-57
2023/07/31 08:09:08;;;;;;;5.80;1.98;;;30.10;68.80;;;;;;5054773;28;20210;-55
2023/07/31 08:11:35;;;;;;;5.38;2.10;;;30.00;68.20;;;;;;5054601;28;20229;-57
2023/07/31 08:14:02;;;;;;;5.00;1.80;;;29.80;68.60;;;;;;5054487;28;20217;-56
2023/07/31 08:16:30;;;;;;;4.18;2.10;;;29.60;69.00;;;;;;5054163;28;20572;-59
2023/07/31 08:18:57;;;;;;;5.30;2.13;;;29.90;69.00;;;;;;5054572;28;20296;-59
2023/07/31 08:21:24;;;;;;;5.07;2.17;;;30.60;66.90;;;;;;5054363;28;20230;-59
2023/07/31 08:23:50;;;;;;;4.07;1.73;;;31.80;64.80;;;;;;5054134;28;20674;-58
2023/07/31 08:26:18;;;;;;;4.18;2.03;;;33.30;60.90;;;;;;5053851;28;20237;-59
2023/07/31 08:28:45;;;;;;;4.65;2.17;;;34.30;57.90;;;;;;5054120;28;20307;-59
2023/07/31 08:31:12;;;;;;;3.47;2.05;;;35.30;56.30;;;;;;5054191;28;20229;-61
2023/07/31 08:33:41;;;;;;;3.22;1.70;;;35.90;55.50;;;;;;5053929;28;20210;-61
2023/07/31 08:36:07;;;;;;;5.90;2.10;;;36.30;54.20;;;;;;5053946;28;20225;-60
2023/07/31 08:38:34;;;;;;;2.85;1.85;;;36.20;53.70;;;;;;5054165;28;20209;-62
2023/07/31 08:41:01;;;;;;;5.00;1.92;;;35.60;54.00;;;;;;5053837;28;20221;-61
2023/07/31 08:43:28;;;;;;;4.22;2.20;;;35.40;54.00;;;;;;5054231;28;20205;-63
2023/07/31 08:45:55;;;;;;;5.60;2.00;;;34.80;54.90;;;;;;5053615;28;20237;-58
2023/07/31 08:48:24;;;;;;;7.97;2.08;;;33.90;56.50;;;;;;5053828;28;20201;-63
2023/07/31 08:50:53;;;;;;;4.35;2.00;;;33.10;58.50;;;;;;5053891;28;20233;-61
2023/07/31 08:53:19;;;;;;;4.03;2.13;;;32.40;59.60;;;;;;5054300;28;20206;-61
2023/07/31 08:55:48;;;;;;;7.68;2.15;;;31.60;61.60;;;;;;5053337;28;20317;-63
2023/07/31 08:58:15;;;;;;;4.25;2.20;;;30.80;62.70;;;;;;5053900;28;20205;-61
2023/07/31 09:00:44;;;;;;;4.57;2.13;;;30.40;64.20;;;;;;5053656;28;20419;-62
2023/07/31 09:03:15;;;;;;;5.97;2.15;;;30.10;65.10;;;;;;5053866;28;20233;-61
2023/07/31 09:05:43;;;;;;;5.20;2.10;;;29.90;64.40;;;;;;5053572;28;20226;-61
2023/07/31 09:08:13;;;;;;;6.22;1.90;;;29.80;64.10;;;;;;5053126;28;20684;-64
2023/07/31 09:10:42;;;;;;;4.97;2.20;;;29.80;65.10;;;;;;5053109;28;20230;-59
2023/07/31 09:13:09;;;;;;;4.97;2.17;;;29.80;65.50;;;;;;5053739;28;20206;-60
2023/07/31 09:15:36;;;;;;;4.25;1.85;;;30.00;65.40;;;;;;5053438;28;20202;-59
2023/07/31 09:18:05;;;;;;;4.97;2.10;;;30.10;64.60;;;;;;5053314;28;20304;-61
2023/07/31 09:20:32;;;;;;;3.47;2.08;;;30.10;65.00;;;;;;5053045;28;20252;-61
2023/07/31 09:23:06;;;;;;;5.40;2.47;;;30.00;65.70;;;;;;5053454;28;20300;-61
2023/07/31 09:25:35;;;;;;;5.32;2.13;;;29.90;66.10;;;;;;5053148;28;20659;-63
2023/07/31 09:28:03;;;;;;;6.25;2.45;;;29.70;65.80;;;;;;5052931;28;20209;-61
2023/07/31 09:30:30;;;;;;;6.45;2.10;;;29.70;66.60;;;;;;5052774;28;20249;-60
2023/07/31 09:33:02;;;;;;;3.40;1.98;;;29.60;66.20;;;;;;5052775;28;20201;-59
2023/07/31 09:35:30;;;;;;;6.45;2.13;;;29.30;67.00;;;;;;5052781;28;20669;-60
2023/07/31 09:37:59;;;;;;;5.07;2.30;;;29.00;67.70;;;;;;5051665;28;20440;-57
2023/07/31 09:40:27;;;;;;;3.30;2.15;;;28.70;68.20;;;;;;5052457;28;20248;-64
2023/07/31 09:42:57;;;;;;;4.88;2.22;;;28.70;68.30;;;;;;5052746;28;20252;-63
2023/07/31 09:45:24;;;;;;;3.13;2.10;;;28.70;68.50;;;;;;5051486;28;20259;-58
2023/07/31 09:47:51;;;;;;;6.40;2.60;;;28.80;68.40;;;;;;5052122;28;20213;-59
2023/07/31 09:50:18;;;;;;;5.35;2.20;;;29.00;68.80;;;;;;5052578;28;20201;-61
2023/07/31 09:52:45;;;;;;;5.57;1.80;;;29.10;69.10;;;;;;5052453;28;20561;-60
2023/07/31 09:55:12;;;;;;;3.70;2.10;;;29.40;68.10;;;;;;5052640;28;20209;-58
2023/07/31 09:57:42;;;;;;;5.70;2.22;;;29.50;67.20;;;;;;5052248;28;20208;-56
2023/07/31 10:00:12;;;;;;;4.57;2.20;;;29.50;67.40;;;;;;5052675;28;20210;-56
2023/07/31 10:02:39;;;;;;;4.90;2.05;;;29.40;67.60;;;;;;5052506;28;20205;-56
2023/07/31 10:05:07;;;;;;;3.97;2.10;;;29.30;67.20;;;;;;5052519;28;20209;-56
2023/07/31 10:07:38;;;;;;;3.22;1.98;;;29.50;67.90;;;;;;5051947;28;20229;-59
2023/07/31 10:10:07;;;;;;;7.38;2.10;;;29.70;66.90;;;;;;5052233;28;20657;-57
2023/07/31 10:12:35;;;;;;;7.18;2.33;;;29.80;67.20;;;;;;5052167;28;20705;-61
2023/07/31 10:15:02;;;;;;;7.03;2.50;;;29.90;67.30;;;;;;5052567;28;20240;-62
2023/07/31 10:17:31;;;;;;;5.90;2.03;;;30.00;66.60;;;;;;5051961;28;20562;-57
2023/07/31 10:19:59;;;;;;;5.85;1.85;;;30.00;66.50;;;;;;5052169;28;20225;-60
2023/07/31 10:22:26;;;;;;;3.97;2.00;;;30.00;66.50;;;;;;5052042;28;20927;-59
2023/07/31 10:24:55;;;;;;;4.90;2.10;;;30.00;65.60;;;;;;5051906;28;20213;-58
2023/07/31 10:27:22;;;;;;;4.30;1.88;;;29.90;66.40;;;;;;5051417;28;20228;-58
2023/07/31 10:29:49;;;;;;;3.63;1.90;;;29.70;66.90;;;;;;5051974;28;20220;-62
2023/07/31 10:32:18;;;;;;;5.28;2.28;;;29.50;66.70;;;;;;5051707;28;20237;-58
2023/07/31 10:34:47;;;;;;;6.32;2.10;;;29.40;66.50;;;;;;5051462;28;20703;-57
2023/07/31 10:37:21;;;;;;;3.55;1.98;;;29.50;67.30;;;;;;5051357;28;20212;-59
2023/07/31 10:40:00;;;;;;;4.30;2.55;;;29.60;66.20;;;;;;5051593;28;20205;-59
2023/07/31 10:42:35;;;;;;;4.50;2.22;;;29.70;66.90;;;;;;5051823;28;20225;-59
2023/07/31 10:45:04;;;;;;;3.63;1.92;;;29.60;66.50;;;;;;5051852;28;20205;-59
2023/07/31 10:47:30;;;;;;;3.13;2.08;;;29.50;67.00;;;;;;5051141;28;20230;-58
2023/07/31 10:50:21;;;;;;;3.95;2.05;;;29.20;67.40;;;;;;5051356;28;20674;-58
2023/07/31 10:52:49;;;;;;;5.60;2.13;;;29.20;67.90;;;;;;5051956;28;20530;-57
2023/07/31 10:55:24;;;;;;;4.05;1.95;;;29.30;68.10;;;;;;5051636;28;20299;-59
2023/07/31 10:57:51;;;;;;;4.03;1.75;;;29.60;68.50;;;;;;5051161;28;20214;-57
2023/07/31 11:00:24;;;;;;;5.55;1.92;;;30.00;66.30;;;;;;5051188;28;20624;-59
2023/07/31 11:03:01;;;;;;;6.95;2.05;;;30.30;65.80;;;;;;5051415;28;20693;-57
2023/07/31 11:05:50;;;;;;;5.68;1.92;;;30.40;65.50;;;;;;5051287;28;20208;-57
2023/07/31 11:08:20;;;;;;;5.35;2.30;;;30.50;65.60;;;;;;5051253;28;20206;-60
2023/07/31 11:10:48;;;;;;;7.38;2.20;;;30.40;65.70;;;;;;5050943;28;20221;-63
2023/07/31 11:13:15;;;;;;;4.63;2.17;;;30.40;65.90;;;;;;5051110;28;20213;-62
2023/07/31 11:15:42;;;;;;;5.80;2.10;;;30.70;65.10;;;;;;5051057;28;20212;-63
2023/07/31 11:18:10;;;;;;;3.85;2.40;;;31.00;63.80;;;;;;5051563;28;20207;-64
2023/07/31 11:20:38;;;;;;;4.18;2.15;;;31.20;63.80;;;;;;5051226;28;20232;-61
2023/07/31 11:23:08;;;;;;;3.67;2.00;;;31.40;62.90;;;;;;5051263;28;20209;-63
2023/07/31 11:25:36;;;;;;;7.80;2.25;;;31.50;62.60;;;;;;5050825;28;20327;-63
2023/07/31 11:28:07;;;;;;;4.75;2.50;;;31.40;62.70;;;;;;5051289;28;20229;-63
2023/07/31 11:30:34;;;;;;;4.00;2.10;;;31.20;62.70;;;;;;5050864;28;20538;-63
2023/07/31 11:33:03;;;;;;;7.93;2.42;;;30.80;63.40;;;;;;5051448;28;20589;-62
2023/07/31 11:35:33;;;;;;;4.43;2.05;;;30.30;64.10;;;;;;5051325;28;20217;-63
2023/07/31 11:38:00;;;;;;;4.72;2.38;;;30.10;65.60;;;;;;5050770;28;20228;-62
2023/07/31 11:40:29;;;;;;;4.50;2.60;;;29.80;66.40;;;;;;5051288;28;20206;-63
2023/07/31 11:42:58;;;;;;;6.20;2.40;;;29.70;66.50;;;;;;5051294;28;20205;-62
2023/07/31 11:45:27;;;;;;;4.35;2.28;;;29.80;66.90;;;;;;5051277;28;20252;-61
2023/07/31 11:47:55;;;;;;;2.97;2.08;;;29.70;66.80;;;;;;5050833;28;20591;-61
2023/07/31 11:50:24;;;;;;;4.40;2.00;;;29.70;66.60;;;;;;5051406;28;20209;-60
2023/07/31 11:52:55;;;;;;;6.85;2.47;;;29.60;67.50;;;;;;5051077;28;20205;-61
2023/07/31 11:55:23;;;;;;;3.45;2.10;;;29.50;68.50;;;;;;5051328;28;20201;-58
2023/07/31 11:57:52;;;;;;;5.07;2.58;;;29.40;68.20;;;;;;5050944;28;20201;-60
2023/07/31 12:00:19;;;;;;;5.93;2.22;;;29.30;68.20;;;;;;5051051;28;20267;-61
2023/07/31 12:02:46;;;;;;;5.13;2.30;;;29.30;67.50;;;;;;5051514;28;20259;-61
2023/07/31 12:05:14;;;;;;;4.72;2.30;;;29.30;67.50;;;;;;5051289;28;20245;-61
2023/07/31 12:07:52;;;;;;;4.07;2.25;;;29.40;67.20;;;;;;5050825;28;20225;-61
2023/07/31 12:10:29;;;;;;;3.83;2.40;;;29.30;67.70;;;;;;5053597;28;20590;-60
2023/07/31 12:13:03;;;;;;;4.80;2.20;;;29.30;67.10;;;;;;5054819;28;20205;-61
2023/07/31 12:15:32;;;;;;;6.22;2.50;;;29.50;67.90;;;;;;5054645;28;20566;-62
2023/07/31 12:17:59;;;;;;;5.15;2.60;;;29.60;66.90;;;;;;5054819;28;20208;-61
2023/07/31 12:20:26;;;;;;;5.10;2.10;;;29.70;66.60;;;;;;5054608;28;20210;-61
2023/07/31 12:22:53;;;;;;;3.17;2.00;;;29.70;66.30;;;;;;5054579;28;20728;-60
2023/07/31 12:25:20;;;;;;;4.22;2.50;;;29.50;67.00;;;;;;5054951;28;20673;-60
2023/07/31 12:27:46;;;;;;;4.28;2.30;;;29.40;67.70;;;;;;5054312;28;20317;-60
2023/07/31 12:32:54;;;;;;;4.05;2.15;;;29.20;67.50;;;;;;5074975;22;20347;-58
2023/07/31 12:35:21;;;;;;;5.95;2.10;;;29.30;67.60;;;;;;5053872;28;20217;-58
2023/07/31 12:37:48;;;;;;;3.47;2.20;;;29.40;67.90;;;;;;5053539;28;20542;-59
2023/07/31 12:40:14;;;;;;;5.75;2.55;;;29.50;67.50;;;;;;5053909;28;20209;-58
2023/07/31 12:42:42;;;;;;;6.15;2.08;;;29.60;67.40;;;;;;5053542;28;20233;-58
2023/07/31 12:45:09;;;;;;;6.30;2.45;;;29.70;67.50;;;;;;5054048;28;20228;-58
2023/07/31 12:47:36;;;;;;;3.17;1.98;;;29.70;67.40;;;;;;5053374;28;20233;-60
2023/07/31 12:50:04;;;;;;;5.03;2.30;;;29.70;67.70;;;;;;5053567;28;20685;-58
2023/07/31 12:52:31;;;;;;;4.32;2.03;;;29.70;67.50;;;;;;5053767;28;20272;-58